Time;durP1;ratioP1;P1;durP2;ratioP2;P2;SDS_P1;SDS_P2;PMS_P1;PMS_P2;Temp;Humidity;BMP_temperature;BMP_pressure;BME280_temperature;BME280_humidity;BME280_pressure;Samples;Min_cycle;Max_cycle;Signal;HPM_P1;HPM_P2
2021/11/24 00:02:09;;;;;;;5.30;3.38;;;5.70;99.90;;;;;;5007402;28;20025;-86
2021/11/24 00:04:35;;;;;;;5.50;3.08;;;5.80;99.90;;;;;;4994064;28;20041;-86
2021/11/24 00:07:01;;;;;;;4.03;3.22;;;5.80;99.90;;;;;;4995188;28;20046;-86
2021/11/24 00:09:26;;;;;;;5.30;3.35;;;5.80;99.90;;;;;;4991571;28;20185;-85
2021/11/24 00:11:52;;;;;;;5.70;4.00;;;5.80;99.90;;;;;;4991606;28;20038;-86
2021/11/24 00:14:17;;;;;;;5.03;3.22;;;5.80;99.90;;;;;;4991664;28;20094;-86
2021/11/24 00:16:43;;;;;;;5.28;3.95;;;5.80;99.90;;;;;;4991902;28;20027;-86
2021/11/24 00:19:09;;;;;;;4.50;3.67;;;5.90;99.90;;;;;;4996665;28;20049;-86
2021/11/24 00:21:34;;;;;;;4.68;3.78;;;5.90;99.90;;;;;;5012060;28;20033;-86
2021/11/24 00:24:00;;;;;;;4.72;3.60;;;6.00;99.90;;;;;;4995782;28;20176;-86
2021/11/24 00:26:25;;;;;;;4.45;3.60;;;5.90;99.90;;;;;;4995792;28;20040;-87
2021/11/24 00:28:51;;;;;;;5.03;3.72;;;5.90;99.90;;;;;;4995757;28;20026;-87
2021/11/24 00:31:16;;;;;;;5.28;3.78;;;5.90;99.90;;;;;;5011682;28;20060;-86
2021/11/24 00:33:43;;;;;;;4.90;3.55;;;5.80;99.90;;;;;;5011737;28;20053;-86
2021/11/24 00:36:09;;;;;;;5.50;4.20;;;5.80;99.90;;;;;;4995612;28;20061;-87
2021/11/24 00:38:34;;;;;;;4.85;3.50;;;5.80;99.90;;;;;;5013307;28;20096;-86
2021/11/24 00:41:00;;;;;;;4.25;3.67;;;5.80;99.90;;;;;;5020038;23;20045;-86
2021/11/24 00:43:27;;;;;;;5.22;3.97;;;5.90;99.90;;;;;;5011784;28;20045;-85
2021/11/24 00:45:53;;;;;;;6.35;4.28;;;5.80;99.90;;;;;;5011905;28;20037;-85
2021/11/24 00:48:19;;;;;;;5.55;4.95;;;5.80;99.90;;;;;;5012027;28;20490;-86
2021/11/24 00:50:45;;;;;;;5.50;4.88;;;5.90;99.90;;;;;;5011795;28;20030;-86
2021/11/24 00:53:10;;;;;;;6.85;5.22;;;5.90;99.90;;;;;;5011528;28;20041;-86
2021/11/24 00:55:36;;;;;;;7.53;5.43;;;6.00;99.90;;;;;;5011824;28;20033;-85
2021/11/24 00:58:02;;;;;;;6.80;5.70;;;5.90;99.90;;;;;;5029296;28;20033;-85
2021/11/24 01:00:28;;;;;;;7.30;5.78;;;5.80;99.90;;;;;;5011724;28;20085;-85
2021/11/24 01:02:53;;;;;;;6.47;5.18;;;5.80;99.90;;;;;;5011628;28;20030;-85
2021/11/24 01:05:19;;;;;;;5.28;4.78;;;5.80;99.90;;;;;;5011779;28;20042;-86
2021/11/24 01:07:45;;;;;;;6.35;5.72;;;5.80;99.90;;;;;;5011450;28;20394;-85
2021/11/24 01:10:12;;;;;;;7.80;5.53;;;5.90;99.90;;;;;;5010920;28;20041;-86
2021/11/24 01:12:38;;;;;;;7.78;5.50;;;5.90;99.90;;;;;;5011365;28;20026;-86
2021/11/24 01:15:04;;;;;;;8.23;6.93;;;5.90;99.90;;;;;;4993752;28;20033;-85
2021/11/24 01:17:30;;;;;;;7.13;5.72;;;6.00;99.90;;;;;;5010952;28;20105;-86
2021/11/24 01:19:56;;;;;;;6.10;5.28;;;6.00;99.90;;;;;;5011005;28;20033;-86
2021/11/24 01:22:22;;;;;;;9.57;7.65;;;5.90;99.90;;;;;;5010671;28;20045;-86
2021/11/24 01:24:47;;;;;;;9.50;7.15;;;5.90;99.90;;;;;;5010873;28;20042;-86
2021/11/24 01:27:13;;;;;;;8.95;7.45;;;5.90;99.90;;;;;;5010894;28;20037;-87
2021/11/24 01:29:38;;;;;;;8.00;7.20;;;5.90;99.90;;;;;;5010639;28;20041;-86
2021/11/24 01:32:05;;;;;;;8.02;6.40;;;5.90;99.90;;;;;;5010542;28;20034;-86
2021/11/24 01:34:30;;;;;;;8.20;6.85;;;5.90;99.90;;;;;;5010743;28;20049;-86
2021/11/24 01:36:56;;;;;;;6.57;5.85;;;5.90;99.90;;;;;;5010749;28;20040;-85
2021/11/24 01:39:22;;;;;;;9.27;7.93;;;5.90;99.90;;;;;;5028146;28;20026;-85
2021/11/24 01:41:47;;;;;;;9.63;7.60;;;6.00;99.90;;;;;;5010238;28;20045;-86
2021/11/24 01:44:21;;;;;;;7.45;6.40;;;5.90;99.90;;;;;;5010866;28;20437;-86
2021/11/24 01:46:52;;;;;;;7.97;5.95;;;5.90;99.90;;;;;;5010391;28;20046;-86
2021/11/24 01:49:18;;;;;;;9.05;7.30;;;5.90;99.90;;;;;;4994515;28;20489;-86
2021/11/24 01:51:44;;;;;;;8.50;6.88;;;5.90;99.90;;;;;;5006998;28;20030;-86
2021/11/24 01:54:13;;;;;;;7.75;6.95;;;6.00;99.90;;;;;;4991025;28;20103;-86
2021/11/24 01:56:39;;;;;;;8.32;6.57;;;6.00;99.90;;;;;;4990690;28;20030;-87
2021/11/24 01:59:04;;;;;;;7.18;6.47;;;6.00;99.90;;;;;;4991024;28;20045;-86
2021/11/24 02:01:30;;;;;;;9.60;7.53;;;6.00;99.90;;;;;;4990409;28;20037;-86
2021/11/24 02:03:56;;;;;;;8.52;7.13;;;6.00;99.90;;;;;;4990749;28;20035;-86
2021/11/24 02:06:21;;;;;;;9.30;7.63;;;6.00;99.90;;;;;;4990665;28;20034;-86
2021/11/24 02:08:47;;;;;;;8.35;6.82;;;6.00;99.90;;;;;;4991248;28;20030;-86
2021/11/24 02:11:12;;;;;;;7.75;7.00;;;6.00;99.90;;;;;;5009812;28;20036;-86
2021/11/24 02:13:38;;;;;;;9.50;7.15;;;6.00;99.90;;;;;;5009917;28;20048;-86
2021/11/24 02:16:04;;;;;;;10.15;8.20;;;6.00;99.90;;;;;;5010191;28;20038;-87
2021/11/24 02:18:29;;;;;;;8.95;7.45;;;6.00;99.90;;;;;;4993827;28;20030;-86
2021/11/24 02:20:55;;;;;;;11.38;8.52;;;6.00;99.90;;;;;;4993745;28;20483;-87
2021/11/24 02:23:21;;;;;;;10.77;8.82;;;6.00;99.90;;;;;;5027290;28;20087;-86
2021/11/24 02:25:46;;;;;;;10.70;8.82;;;6.00;99.90;;;;;;5009766;28;20045;-86
2021/11/24 02:28:13;;;;;;;9.57;8.43;;;6.00;99.90;;;;;;5009927;28;20022;-86
2021/11/24 02:30:39;;;;;;;11.18;8.57;;;6.10;99.90;;;;;;5028962;28;20026;-85
2021/11/24 02:33:05;;;;;;;9.48;8.40;;;6.10;99.90;;;;;;5009463;28;20097;-86
2021/11/24 02:35:31;;;;;;;12.98;8.68;;;6.10;99.90;;;;;;5009696;28;20045;-86
2021/11/24 02:37:58;;;;;;;10.43;7.43;;;6.10;99.90;;;;;;5009469;28;20101;-86
2021/11/24 02:43:17;;;;;;;12.18;7.85;;;6.10;99.90;;;;;;4967053;29;20062;-86
2021/11/24 02:45:43;;;;;;;11.00;7.15;;;6.10;99.90;;;;;;4967778;29;20079;-86
2021/11/24 02:48:08;;;;;;;11.38;7.28;;;6.10;99.90;;;;;;4967672;29;20035;-86
2021/11/24 02:50:34;;;;;;;10.35;6.53;;;6.20;99.90;;;;;;4964188;29;20059;-86
2021/11/24 02:53:00;;;;;;;11.63;7.05;;;6.20;99.90;;;;;;4948360;29;20040;-86
2021/11/24 02:55:26;;;;;;;12.65;6.53;;;6.20;99.90;;;;;;4949413;29;20027;-86
2021/11/24 02:57:52;;;;;;;12.93;7.80;;;6.20;99.90;;;;;;4964153;29;20065;-85
2021/11/24 03:00:24;;;;;;;9.75;5.97;;;6.30;99.90;;;;;;4964601;29;20040;-85
2021/11/24 03:02:51;;;;;;;10.23;6.03;;;6.30;99.90;;;;;;4949405;29;20083;-86
2021/11/24 03:05:20;;;;;;;14.80;5.63;;;6.30;99.90;;;;;;4949203;29;20489;-86
2021/11/24 03:07:46;;;;;;;16.08;6.47;;;6.30;99.90;;;;;;4948072;29;20035;-87
2021/11/24 03:10:15;;;;;;;19.73;6.88;;;6.30;99.90;;;;;;4967032;29;20035;-85
2021/11/24 03:12:43;;;;;;;14.50;5.55;;;6.30;99.90;;;;;;4951110;29;20037;-86
2021/11/24 03:15:09;;;;;;;13.13;6.82;;;6.30;99.90;;;;;;4951030;29;20031;-86
2021/11/24 03:17:36;;;;;;;10.45;5.35;;;6.30;99.90;;;;;;4950849;29;20492;-86
2021/11/24 03:20:07;;;;;;;14.73;6.53;;;6.30;99.90;;;;;;4950886;29;20030;-85
2021/11/24 03:22:34;;;;;;;11.55;6.00;;;6.30;99.90;;;;;;4950528;29;20027;-86
2021/11/24 03:25:00;;;;;;;12.18;7.05;;;6.30;99.90;;;;;;4966869;29;20035;-86
2021/11/24 03:27:35;;;;;;;11.20;6.22;;;6.30;99.90;;;;;;4966453;29;20448;-86
2021/11/24 03:30:10;;;;;;;12.45;6.72;;;6.30;99.90;;;;;;4966686;29;20396;-86
2021/11/24 03:32:35;;;;;;;13.80;6.18;;;6.30;99.90;;;;;;4950483;29;20042;-85
2021/11/24 03:35:02;;;;;;;12.95;5.75;;;6.30;99.90;;;;;;4950687;29;20035;-86
2021/11/24 03:37:28;;;;;;;11.27;5.05;;;6.30;99.90;;;;;;4950408;29;20035;-86
2021/11/24 03:40:15;;;;;;;11.23;5.47;;;6.30;99.90;;;;;;4964469;29;20031;-84
2021/11/24 03:42:46;;;;;;;10.18;5.55;;;6.30;99.90;;;;;;4929817;29;20047;-86
2021/11/24 03:45:12;;;;;;;11.48;4.90;;;6.30;99.90;;;;;;4930194;29;20061;-85
2021/11/24 03:47:38;;;;;;;9.75;4.88;;;6.30;99.90;;;;;;4914502;29;20063;-85
2021/11/24 03:50:05;;;;;;;10.65;4.28;;;6.30;99.90;;;;;;4930386;29;20031;-85
2021/11/24 03:52:31;;;;;;;8.95;4.13;;;6.30;99.90;;;;;;4930250;29;20422;-86
2021/11/24 03:54:57;;;;;;;10.98;4.38;;;6.30;99.90;;;;;;4930175;29;20063;-86
2021/11/24 03:57:22;;;;;;;8.60;3.58;;;6.30;99.90;;;;;;4946140;29;20532;-86
2021/11/24 03:59:48;;;;;;;6.90;3.35;;;6.30;99.90;;;;;;4930280;29;20508;-86
2021/11/24 04:02:13;;;;;;;7.30;3.25;;;6.30;99.90;;;;;;4930201;29;20040;-86
2021/11/24 04:04:39;;;;;;;6.38;2.97;;;6.30;99.90;;;;;;4930253;29;20032;-86
2021/11/24 04:07:05;;;;;;;8.35;3.50;;;6.30;99.90;;;;;;4930192;29;20059;-85
2021/11/24 04:09:30;;;;;;;7.07;3.33;;;6.30;99.90;;;;;;4926852;29;20028;-86
2021/11/24 04:11:56;;;;;;;6.53;3.05;;;6.30;99.90;;;;;;4911191;29;20036;-86
2021/11/24 04:14:22;;;;;;;8.10;3.22;;;6.30;99.90;;;;;;4911072;29;20067;-86
2021/11/24 04:16:47;;;;;;;7.97;3.50;;;6.30;99.90;;;;;;4911454;29;20100;-86
2021/11/24 04:19:13;;;;;;;8.23;3.38;;;6.30;99.90;;;;;;4916852;29;20055;-86
2021/11/24 04:21:38;;;;;;;6.57;3.05;;;6.30;99.90;;;;;;4947042;29;20028;-86
2021/11/24 04:24:05;;;;;;;7.78;3.30;;;6.20;99.90;;;;;;4947167;29;20108;-86
2021/11/24 04:26:30;;;;;;;9.07;4.30;;;6.30;99.90;;;;;;4946920;29;20040;-86
2021/11/24 04:28:56;;;;;;;6.63;3.17;;;6.30;99.90;;;;;;4947472;29;20059;-86
2021/11/24 04:31:22;;;;;;;7.43;3.53;;;6.20;99.90;;;;;;4949021;29;20139;-86
2021/11/24 04:33:47;;;;;;;8.05;3.67;;;6.30;99.90;;;;;;4946901;29;20042;-86
2021/11/24 04:36:13;;;;;;;6.20;2.58;;;6.30;99.90;;;;;;4947089;29;20036;-86
2021/11/24 04:38:39;;;;;;;5.95;3.15;;;6.30;99.90;;;;;;4946827;29;20436;-86
2021/11/24 04:41:05;;;;;;;6.30;3.17;;;6.20;99.90;;;;;;4946504;29;20055;-86
2021/11/24 04:43:34;;;;;;;6.95;3.40;;;6.20;99.90;;;;;;4946945;29;20032;-86
2021/11/24 04:46:00;;;;;;;7.07;2.73;;;6.20;99.90;;;;;;4946838;29;20043;-86
2021/11/24 04:48:27;;;;;;;8.52;3.65;;;6.20;99.90;;;;;;4947056;29;20279;-86
2021/11/24 04:50:52;;;;;;;6.35;3.17;;;6.20;99.90;;;;;;4950598;28;20041;-86
2021/11/24 04:53:18;;;;;;;6.38;2.92;;;6.20;99.90;;;;;;4972609;28;20125;-86
2021/11/24 04:55:43;;;;;;;9.32;3.55;;;6.10;99.90;;;;;;4972952;28;20058;-85
2021/11/24 04:58:09;;;;;;;6.72;3.22;;;6.10;99.90;;;;;;4972641;28;20158;-86
2021/11/24 05:00:35;;;;;;;6.03;2.83;;;6.10;99.90;;;;;;4972543;28;20073;-86
2021/11/24 05:03:01;;;;;;;6.20;2.33;;;6.10;99.90;;;;;;4972425;28;20133;-86
2021/11/24 05:05:30;;;;;;;6.05;3.15;;;6.10;99.90;;;;;;4972395;28;20136;-86
2021/11/24 05:07:59;;;;;;;7.55;2.83;;;6.00;99.90;;;;;;4988777;28;20034;-85
2021/11/24 05:10:26;;;;;;;7.82;2.28;;;6.00;99.90;;;;;;4974629;28;20035;-85
2021/11/24 05:12:52;;;;;;;7.13;2.80;;;6.00;99.90;;;;;;4968852;28;20039;-85
2021/11/24 05:15:42;;;;;;;5.93;2.95;;;6.00;99.90;;;;;;4953227;29;20535;-86
2021/11/24 05:18:07;;;;;;;5.97;2.58;;;6.00;99.90;;;;;;4952631;29;20039;-86
2021/11/24 05:20:34;;;;;;;5.40;2.25;;;6.00;99.90;;;;;;4968925;29;20031;-86
2021/11/24 05:23:05;;;;;;;4.93;2.28;;;6.00;99.90;;;;;;4952789;29;20031;-86
2021/11/24 05:25:32;;;;;;;5.93;2.60;;;6.00;99.90;;;;;;4952848;29;20130;-86
2021/11/24 05:27:58;;;;;;;5.22;2.33;;;6.00;99.90;;;;;;4952755;29;20185;-85
2021/11/24 05:30:24;;;;;;;6.85;2.45;;;6.00;99.90;;;;;;4959790;28;20033;-86
2021/11/24 05:32:54;;;;;;;9.18;2.63;;;6.10;99.90;;;;;;4968535;29;20036;-86
2021/11/24 05:35:21;;;;;;;6.18;2.40;;;6.10;99.90;;;;;;4968521;29;20035;-84
2021/11/24 05:37:50;;;;;;;7.93;2.50;;;6.10;99.90;;;;;;4968515;29;20046;-84
2021/11/24 05:40:16;;;;;;;6.25;2.45;;;6.10;99.90;;;;;;4968089;29;20039;-84
2021/11/24 05:42:48;;;;;;;6.82;2.60;;;6.00;99.90;;;;;;4968062;28;20551;-84
2021/11/24 05:45:26;;;;;;;4.40;2.10;;;6.00;99.90;;;;;;4967974;29;20615;-84
2021/11/24 05:50:18;;;;;;;8.43;3.13;;;6.00;99.90;;;;;;4973072;28;20054;-86
2021/11/24 05:52:43;;;;;;;8.27;3.90;;;6.00;99.90;;;;;;4987444;28;20542;-86
2021/11/24 05:55:09;;;;;;;9.18;3.90;;;5.90;99.90;;;;;;4987415;28;20472;-86
2021/11/24 05:57:35;;;;;;;13.80;5.00;;;5.90;99.90;;;;;;4971532;28;20476;-86
2021/11/24 06:00:01;;;;;;;8.07;4.22;;;5.90;99.90;;;;;;4986956;28;20535;-86
2021/11/24 06:02:26;;;;;;;15.93;6.32;;;5.90;99.90;;;;;;4986583;28;20031;-86
2021/11/24 06:04:52;;;;;;;15.75;6.93;;;5.90;99.90;;;;;;4987337;28;20034;-87
2021/11/24 06:07:18;;;;;;;16.48;7.28;;;5.80;99.90;;;;;;4987426;28;20042;-86
2021/11/24 06:09:44;;;;;;;17.23;7.75;;;5.80;99.90;;;;;;4978910;28;20494;-86
2021/11/24 06:12:10;;;;;;;19.52;7.70;;;5.70;99.90;;;;;;4967662;29;20035;-86
2021/11/24 06:14:35;;;;;;;18.88;7.60;;;5.70;99.90;;;;;;4967522;29;20034;-86
2021/11/24 06:17:01;;;;;;;13.07;6.90;;;5.70;99.90;;;;;;4951818;29;20043;-86
2021/11/24 06:19:27;;;;;;;18.33;6.78;;;5.80;99.90;;;;;;4967594;29;20034;-86
2021/11/24 06:21:52;;;;;;;12.63;5.97;;;5.80;99.90;;;;;;4951595;29;20042;-86
2021/11/24 06:24:21;;;;;;;19.50;6.15;;;5.70;99.90;;;;;;4951675;29;20134;-87
2021/11/24 06:26:47;;;;;;;16.63;6.65;;;5.70;99.90;;;;;;4951538;29;20047;-87
2021/11/24 06:29:12;;;;;;;20.98;6.93;;;5.70;99.90;;;;;;4951164;29;20031;-87
2021/11/24 06:31:38;;;;;;;13.38;6.07;;;5.70;99.90;;;;;;4967379;29;20107;-87
2021/11/24 06:34:04;;;;;;;23.23;7.18;;;5.70;99.90;;;;;;4951726;29;20043;-87
2021/11/24 06:36:29;;;;;;;10.80;5.82;;;5.70;99.90;;;;;;4951570;29;20042;-87
2021/11/24 06:38:55;;;;;;;13.90;6.95;;;5.70;99.90;;;;;;4951502;29;20104;-87
2021/11/24 06:41:21;;;;;;;10.85;6.03;;;5.70;99.90;;;;;;4989100;23;20540;-86
2021/11/24 06:43:46;;;;;;;9.00;5.40;;;5.70;99.90;;;;;;5029402;28;20037;-87
2021/11/24 06:46:12;;;;;;;11.13;6.80;;;5.80;99.90;;;;;;5029378;28;20069;-87
2021/11/24 06:48:38;;;;;;;8.77;5.75;;;5.70;99.90;;;;;;5029397;28;20370;-87
2021/11/24 06:51:03;;;;;;;10.15;6.22;;;5.70;99.90;;;;;;5045187;28;20041;-86
2021/11/24 06:53:29;;;;;;;11.52;4.97;;;5.70;99.90;;;;;;5043332;28;20026;-87
2021/11/24 06:55:55;;;;;;;16.45;6.93;;;5.60;99.90;;;;;;5061727;28;20044;-88
2021/11/24 06:58:20;;;;;;;16.60;6.82;;;5.60;99.90;;;;;;5044866;28;20036;-86
2021/11/24 07:00:46;;;;;;;18.33;7.28;;;5.60;99.90;;;;;;5035331;28;20053;-88
2021/11/24 07:03:12;;;;;;;11.35;6.30;;;5.60;99.90;;;;;;5044276;28;20030;-88
2021/11/24 07:05:38;;;;;;;10.20;6.72;;;5.60;99.90;;;;;;5044293;28;20041;-88
2021/11/24 07:08:05;;;;;;;12.02;5.63;;;5.60;99.90;;;;;;5028922;28;20492;-88
2021/11/24 07:10:32;;;;;;;16.52;5.60;;;5.60;99.90;;;;;;5028092;28;20047;-87
2021/11/24 07:12:57;;;;;;;10.50;6.18;;;5.60;99.90;;;;;;5043653;28;20035;-87
2021/11/24 07:15:23;;;;;;;20.02;7.43;;;5.70;99.90;;;;;;5043849;28;20029;-87
2021/11/24 07:17:50;;;;;;;16.70;6.80;;;5.70;99.90;;;;;;5044565;28;20083;-87
2021/11/24 07:20:15;;;;;;;12.07;6.15;;;5.70;99.90;;;;;;5044948;28;20029;-87
2021/11/24 07:22:41;;;;;;;25.17;7.80;;;5.60;99.90;;;;;;5044876;28;20060;-88
2021/11/24 07:25:08;;;;;;;11.10;7.10;;;5.60;99.90;;;;;;5044657;28;20033;-87
2021/11/24 07:27:34;;;;;;;15.77;6.78;;;5.70;99.90;;;;;;5028390;28;20071;-86
2021/11/24 07:30:00;;;;;;;15.57;6.53;;;5.60;99.90;;;;;;5045176;28;20029;-87
2021/11/24 07:32:26;;;;;;;21.85;7.10;;;5.60;99.90;;;;;;5044753;28;20044;-87
2021/11/24 07:34:51;;;;;;;16.65;6.47;;;5.60;99.90;;;;;;5028621;28;20033;-87
2021/11/24 07:37:17;;;;;;;12.18;6.60;;;5.60;99.90;;;;;;5044932;28;20045;-87
2021/11/24 07:42:52;;;;;;;12.53;6.63;;;5.70;99.90;;;;;;4967829;28;20053;-86
2021/11/24 07:45:18;;;;;;;10.95;6.95;;;5.70;99.90;;;;;;4968083;28;20054;-87
2021/11/24 07:47:44;;;;;;;10.45;6.65;;;5.70;99.90;;;;;;4967830;28;20045;-86
2021/11/24 07:50:10;;;;;;;9.27;6.38;;;5.80;99.90;;;;;;4968052;28;20041;-86
2021/11/24 07:52:36;;;;;;;10.27;6.80;;;5.80;99.90;;;;;;4967700;28;20443;-86
2021/11/24 07:55:03;;;;;;;9.23;6.07;;;5.80;99.90;;;;;;4968026;28;20052;-87
2021/11/24 07:57:29;;;;;;;21.92;7.55;;;5.90;99.90;;;;;;4967997;28;20042;-86
2021/11/24 07:59:55;;;;;;;9.65;6.40;;;5.90;99.90;;;;;;4967899;28;20035;-86
2021/11/24 08:02:20;;;;;;;12.75;6.32;;;5.90;99.90;;;;;;4967867;28;20503;-87
2021/11/24 08:04:46;;;;;;;10.98;7.10;;;5.90;99.90;;;;;;4967993;28;20038;-87
2021/11/24 08:07:12;;;;;;;10.32;6.25;;;6.00;99.90;;;;;;4967899;28;20082;-87
2021/11/24 08:09:37;;;;;;;10.82;7.22;;;6.00;99.90;;;;;;4974994;28;20026;-85
2021/11/24 08:12:04;;;;;;;17.05;8.00;;;6.00;99.90;;;;;;4987013;28;20045;-87
2021/11/24 08:14:29;;;;;;;15.80;7.70;;;6.00;99.90;;;;;;4987312;28;20057;-87
2021/11/24 08:16:55;;;;;;;11.15;7.03;;;6.00;99.90;;;;;;4987050;28;20499;-86
2021/11/24 08:19:21;;;;;;;18.50;7.30;;;6.00;99.90;;;;;;4987266;28;20038;-86
2021/11/24 08:21:47;;;;;;;12.18;6.95;;;6.10;99.90;;;;;;5024142;28;20038;-86
2021/11/24 08:24:13;;;;;;;13.43;7.18;;;6.00;99.90;;;;;;5025054;28;20034;-86
2021/11/24 08:26:42;;;;;;;16.17;8.15;;;6.10;99.90;;;;;;5029112;28;20065;-87
2021/11/24 08:29:09;;;;;;;12.68;8.70;;;6.10;99.90;;;;;;5027926;28;20095;-87
2021/11/24 08:31:41;;;;;;;12.68;7.80;;;6.10;99.90;;;;;;5028013;28;20056;-85
2021/11/24 08:34:08;;;;;;;11.48;7.10;;;6.10;99.90;;;;;;5028459;28;20496;-84
2021/11/24 08:36:34;;;;;;;11.32;7.68;;;6.20;99.90;;;;;;5027878;28;20528;-84
2021/11/24 08:39:00;;;;;;;15.32;9.23;;;6.20;99.90;;;;;;5027844;28;20032;-84
2021/11/24 08:41:26;;;;;;;16.63;9.00;;;6.20;99.90;;;;;;5027256;28;20046;-85
2021/11/24 08:43:51;;;;;;;15.95;9.65;;;6.20;99.90;;;;;;5027404;28;20034;-84
2021/11/24 08:46:17;;;;;;;20.73;10.05;;;6.30;99.90;;;;;;5011519;28;20037;-84
2021/11/24 08:48:43;;;;;;;13.52;8.88;;;6.30;99.90;;;;;;5011001;28;20108;-84
2021/11/24 08:51:08;;;;;;;15.70;9.35;;;6.40;99.90;;;;;;5021625;28;20466;-85
2021/11/24 08:53:34;;;;;;;15.40;9.70;;;6.40;99.90;;;;;;5047081;28;20029;-85
2021/11/24 08:56:00;;;;;;;16.20;9.02;;;6.40;99.90;;;;;;5047321;28;20029;-84
2021/11/24 08:58:26;;;;;;;15.90;9.48;;;6.40;99.90;;;;;;5030635;28;20501;-84
2021/11/24 09:00:51;;;;;;;15.30;9.52;;;6.40;99.90;;;;;;5046810;28;20029;-85
2021/11/24 09:03:17;;;;;;;14.48;8.60;;;6.40;99.90;;;;;;5046906;28;20128;-84
2021/11/24 09:05:43;;;;;;;15.88;8.55;;;6.40;99.90;;;;;;5047098;28;20072;-84
2021/11/24 09:08:09;;;;;;;14.38;8.48;;;6.50;99.90;;;;;;5046982;28;20033;-84
2021/11/24 09:10:35;;;;;;;14.18;8.00;;;6.50;99.90;;;;;;5046718;28;20078;-84
2021/11/24 09:13:02;;;;;;;11.95;7.03;;;6.50;99.90;;;;;;5046728;28;20036;-84
2021/11/24 09:15:27;;;;;;;11.20;6.82;;;6.50;99.90;;;;;;5046808;28;20049;-84
2021/11/24 09:17:53;;;;;;;12.00;7.57;;;6.50;99.90;;;;;;5046688;28;20037;-84
2021/11/24 09:20:24;;;;;;;12.68;7.40;;;6.50;99.90;;;;;;5046443;28;20037;-84
2021/11/24 09:22:51;;;;;;;13.60;8.30;;;6.50;99.90;;;;;;5046322;28;20080;-84
2021/11/24 09:25:20;;;;;;;14.73;9.18;;;6.60;99.90;;;;;;5046598;28;20056;-85
2021/11/24 09:30:19;;;;;;;13.63;7.90;;;6.60;99.90;;;;;;5046744;28;20041;-84
2021/11/24 09:32:45;;;;;;;11.27;7.80;;;6.70;99.90;;;;;;5046255;28;20033;-85
2021/11/24 09:35:11;;;;;;;14.63;7.95;;;6.70;99.90;;;;;;5045852;28;20030;-85
2021/11/24 09:37:37;;;;;;;15.38;8.35;;;6.70;99.90;;;;;;5045739;28;20029;-85
2021/11/24 09:40:23;;;;;;;14.43;8.65;;;6.70;99.90;;;;;;5046178;28;20026;-85
2021/11/24 09:42:51;;;;;;;15.02;8.75;;;6.80;99.90;;;;;;4972934;28;20059;-85
2021/11/24 09:45:17;;;;;;;13.38;8.00;;;6.80;99.90;;;;;;4989650;28;20050;-84
2021/11/24 09:47:47;;;;;;;15.75;8.73;;;6.80;99.90;;;;;;4973535;28;20073;-87
2021/11/24 09:50:16;;;;;;;15.35;9.23;;;6.80;99.90;;;;;;4992398;28;20033;-86
2021/11/24 09:52:47;;;;;;;16.83;9.20;;;6.80;99.90;;;;;;4992541;28;20041;-87
2021/11/24 09:55:13;;;;;;;19.00;10.35;;;6.70;99.90;;;;;;5025195;28;20041;-86
2021/11/24 09:57:40;;;;;;;15.52;9.02;;;6.70;99.90;;;;;;5008841;28;20037;-87
2021/11/24 10:00:06;;;;;;;17.23;8.90;;;6.80;99.90;;;;;;5008559;28;20046;-87
2021/11/24 10:02:38;;;;;;;15.07;7.93;;;6.90;99.90;;;;;;5009417;28;20482;-86
2021/11/24 10:05:05;;;;;;;16.23;8.70;;;6.80;99.90;;;;;;5008629;28;20064;-87
2021/11/24 10:07:30;;;;;;;14.55;8.27;;;6.80;99.90;;;;;;5025115;28;20038;-87
2021/11/24 10:09:57;;;;;;;18.30;9.45;;;6.90;99.90;;;;;;4998626;28;20037;-86
2021/11/24 10:12:22;;;;;;;16.60;9.13;;;6.90;99.90;;;;;;4988796;28;20045;-87
2021/11/24 10:14:48;;;;;;;15.35;8.65;;;6.90;99.90;;;;;;4989030;28;20034;-87
2021/11/24 10:17:16;;;;;;;15.82;8.30;;;6.90;99.90;;;;;;4989105;28;20081;-87
2021/11/24 10:20:06;;;;;;;17.92;8.80;;;7.00;99.90;;;;;;5011169;28;20044;-86
2021/11/24 10:22:37;;;;;;;15.85;9.02;;;7.00;99.90;;;;;;5045666;28;20030;-87
2021/11/24 10:25:12;;;;;;;14.82;7.75;;;7.00;99.90;;;;;;5029144;28;20045;-87
2021/11/24 10:27:43;;;;;;;14.43;8.10;;;7.00;99.90;;;;;;5045540;28;20034;-87
2021/11/24 10:30:10;;;;;;;17.85;9.07;;;7.10;99.90;;;;;;5029005;28;20049;-87
2021/11/24 10:32:36;;;;;;;16.63;9.32;;;7.10;99.90;;;;;;5045602;28;20068;-87
2021/11/24 10:35:04;;;;;;;14.88;8.57;;;7.10;99.90;;;;;;5045391;28;20033;-87
2021/11/24 10:37:31;;;;;;;15.82;7.78;;;7.10;99.90;;;;;;5045457;28;20393;-87
2021/11/24 10:40:16;;;;;;;16.42;8.32;;;7.20;99.90;;;;;;5045122;28;20101;-87
2021/11/24 10:42:47;;;;;;;16.98;8.85;;;7.20;99.90;;;;;;4988311;28;20117;-87
2021/11/24 10:45:21;;;;;;;16.98;8.43;;;7.20;99.90;;;;;;4988407;28;20050;-87
2021/11/24 10:47:54;;;;;;;17.42;8.75;;;7.20;99.90;;;;;;4972075;28;20046;-87
2021/11/24 10:50:27;;;;;;;17.92;9.27;;;7.20;99.90;;;;;;4971985;28;20097;-87
2021/11/24 10:52:53;;;;;;;17.45;9.32;;;7.30;99.90;;;;;;4972313;28;20034;-87
2021/11/24 10:55:30;;;;;;;17.40;9.00;;;7.30;99.90;;;;;;4972546;28;20158;-87
2021/11/24 10:58:05;;;;;;;17.05;8.43;;;7.30;99.90;;;;;;4972553;28;20172;-87
2021/11/24 11:00:32;;;;;;;17.20;8.95;;;7.40;99.90;;;;;;4972477;28;20045;-87
2021/11/24 11:02:58;;;;;;;17.35;8.52;;;7.50;99.90;;;;;;4972063;28;20138;-87
2021/11/24 11:05:25;;;;;;;15.73;8.57;;;7.40;99.90;;;;;;4971906;28;20046;-87
2021/11/24 11:07:51;;;;;;;14.90;8.10;;;7.40;99.90;;;;;;4972089;28;20039;-87
2021/11/24 11:10:25;;;;;;;16.40;9.10;;;7.30;99.90;;;;;;4984762;28;20143;-87
2021/11/24 11:13:18;;;;;;;15.93;8.95;;;7.30;99.90;;;;;;4984831;28;20039;-87
2021/11/24 11:15:45;;;;;;;14.38;7.95;;;7.30;99.90;;;;;;4965114;28;20039;-87
2021/11/24 11:18:25;;;;;;;13.95;7.85;;;7.40;99.90;;;;;;4968684;28;20066;-87
2021/11/24 11:20:57;;;;;;;14.32;7.95;;;7.30;99.90;;;;;;5004864;28;20040;-87
2021/11/24 11:23:26;;;;;;;17.45;9.13;;;7.30;99.90;;;;;;5025039;28;20097;-88
2021/11/24 11:25:58;;;;;;;14.87;8.33;;;7.30;99.90;;;;;;5026206;28;20212;-87
2021/11/24 11:28:31;;;;;;;12.43;5.80;;;7.40;99.90;;;;;;5008747;28;20292;-87
2021/11/24 11:31:01;;;;;;;15.90;7.95;;;7.40;99.90;;;;;;5008451;28;20033;-87
2021/11/24 11:33:31;;;;;;;18.02;8.32;;;7.30;99.90;;;;;;5008492;28;20041;-87
2021/11/24 11:36:06;;;;;;;14.15;8.52;;;7.30;99.90;;;;;;5024574;28;20034;-87
2021/11/24 11:38:34;;;;;;;14.93;8.38;;;7.50;99.90;;;;;;5008861;28;20038;-88
2021/11/24 11:41:02;;;;;;;16.45;9.02;;;7.40;99.90;;;;;;5008350;28;20032;-87
2021/11/24 11:43:27;;;;;;;13.77;8.15;;;7.50;99.90;;;;;;5008871;28;20044;-87
2021/11/24 11:45:55;;;;;;;15.57;7.35;;;7.50;99.90;;;;;;5008338;28;20065;-87
2021/11/24 11:48:32;;;;;;;15.65;8.13;;;7.50;99.90;;;;;;5008515;28;20044;-87
2021/11/24 11:51:03;;;;;;;12.45;7.47;;;7.60;99.90;;;;;;5014152;28;20030;-88
2021/11/24 11:53:49;;;;;;;14.75;8.02;;;7.40;99.90;;;;;;5024512;28;20103;-88
2021/11/24 11:56:24;;;;;;;13.20;7.60;;;7.50;99.90;;;;;;5024523;28;20030;-88
2021/11/24 11:59:08;;;;;;;14.57;7.65;;;7.60;99.90;;;;;;5025024;28;20176;-88
2021/11/24 12:01:58;;;;;;;11.23;6.50;;;7.70;99.90;;;;;;5028361;28;20037;-88
2021/11/24 12:04:28;;;;;;;11.63;6.90;;;7.70;99.90;;;;;;5028631;28;20037;-87
2021/11/24 12:06:53;;;;;;;11.43;5.50;;;7.70;99.90;;;;;;5028135;28;20054;-88
2021/11/24 12:09:22;;;;;;;11.27;6.13;;;7.60;99.90;;;;;;5033000;28;20059;-88
2021/11/24 12:12:01;;;;;;;11.73;5.90;;;7.70;99.90;;;;;;5048161;28;20048;-88
2021/11/24 12:14:39;;;;;;;8.95;5.30;;;7.90;99.90;;;;;;5048206;28;20026;-88
2021/11/24 12:17:36;;;;;;;10.82;5.85;;;7.90;99.90;;;;;;5048197;28;20025;-88
2021/11/24 12:20:15;;;;;;;10.35;5.53;;;7.80;99.90;;;;;;5048060;28;20030;-88
2021/11/24 12:22:53;;;;;;;11.05;5.50;;;7.70;99.90;;;;;;5047525;28;20033;-88
2021/11/24 12:25:27;;;;;;;7.97;4.80;;;7.80;99.90;;;;;;5048064;28;20052;-87
2021/11/24 12:27:53;;;;;;;10.55;5.43;;;7.80;99.90;;;;;;5047912;28;20030;-88
2021/11/24 12:30:40;;;;;;;8.45;4.65;;;7.80;99.90;;;;;;5047891;28;20608;-88
2021/11/24 12:33:17;;;;;;;13.35;5.38;;;7.90;99.90;;;;;;5047565;28;20033;-87
2021/11/24 12:35:51;;;;;;;8.50;4.80;;;7.90;99.90;;;;;;5047725;28;20064;-88
2021/11/24 12:38:18;;;;;;;7.68;4.50;;;7.90;99.90;;;;;;5047576;28;20036;-88
2021/11/24 12:40:46;;;;;;;8.30;4.53;;;7.90;99.90;;;;;;5047471;28;20102;-87
2021/11/24 12:43:17;;;;;;;7.72;4.40;;;8.00;99.90;;;;;;5047481;28;20095;-88
2021/11/24 12:46:08;;;;;;;9.05;4.53;;;7.90;99.90;;;;;;5031352;28;20041;-88
2021/11/24 12:48:45;;;;;;;7.95;4.28;;;7.90;99.90;;;;;;5031173;28;20033;-88
2021/11/24 12:51:24;;;;;;;9.25;5.18;;;8.00;99.90;;;;;;5047490;28;20036;-88
2021/11/24 12:53:56;;;;;;;9.05;4.50;;;7.90;99.90;;;;;;5047672;28;20065;-88
2021/11/24 12:56:25;;;;;;;9.02;4.90;;;8.00;99.90;;;;;;5047653;28;20033;-88
2021/11/24 12:58:51;;;;;;;9.80;5.45;;;8.00;99.90;;;;;;5047242;28;20026;-88
2021/11/24 13:01:33;;;;;;;9.23;5.25;;;7.90;99.90;;;;;;5047330;28;20067;-88
2021/11/24 13:04:05;;;;;;;10.68;5.45;;;7.90;99.90;;;;;;5047334;28;20025;-88
2021/11/24 13:06:32;;;;;;;9.15;5.30;;;7.80;99.90;;;;;;5047349;28;20068;-88